WZZ9AH EPWA-LEPA
Flight info
| Callsign | WZZ9AH |
|---|---|
| Flight time | N/A |
| Altitude | 34000 |
| Route | SOXER DCT VAMPU N869 UVIVI DCT NUDRO DCT ELVOT DCT BUDEX DCT DETSA/N0456F350 DCT PIDAD DCT TALEP DCT RARQU DCT BALEN/N0445F290 UT250 RIXOT |
| Aircraft | A21N/M-SDE3FGHIRWY/LB1 |
Departure
| Time | N/A |
|---|---|
| Airport | Warsaw Chopin Airport (EPWA) |
Arrival
| Time | 2026-05-07 12:03 |
|---|---|
| Airport | Palma de Mallorca Airport (LEPA) |
| Time | Latitude | Longitude | Altitude | Speed | Heading |
|---|---|---|---|---|---|
| 2026-05-07 09:38 | 50.50682 | 16.27323 | 33941 ft | 395 kts | 217° |
| 2026-05-07 09:39 | 50.46468 | 16.21843 | 33942 ft | 395 kts | 217° |
| 2026-05-07 09:39 | 50.42217 | 16.16341 | 33941 ft | 394 kts | 217° |
| 2026-05-07 09:40 | 50.38010 | 16.10912 | 33941 ft | 394 kts | 217° |
| 2026-05-07 09:40 | 50.33772 | 16.05460 | 33941 ft | 394 kts | 217° |
| 2026-05-07 09:41 | 50.29567 | 16.00065 | 33942 ft | 394 kts | 217° |
| 2026-05-07 09:41 | 50.25306 | 15.94611 | 33941 ft | 395 kts | 217° |
| 2026-05-07 09:42 | 50.21086 | 15.89223 | 33941 ft | 395 kts | 217° |
| 2026-05-07 09:42 | 50.16834 | 15.83806 | 33941 ft | 395 kts | 217° |
| 2026-05-07 09:43 | 50.12583 | 15.78404 | 33942 ft | 395 kts | 217° |
| 2026-05-07 09:43 | 50.08331 | 15.73013 | 33942 ft | 395 kts | 217° |
| 2026-05-07 09:44 | 50.04097 | 15.67656 | 33942 ft | 395 kts | 217° |
| 2026-05-07 09:44 | 49.99840 | 15.62284 | 33941 ft | 395 kts | 217° |
| 2026-05-07 09:45 | 49.95577 | 15.56918 | 33942 ft | 395 kts | 217° |
| 2026-05-07 09:45 | 49.91316 | 15.51564 | 33942 ft | 395 kts | 217° |
| 2026-05-07 09:46 | 49.87053 | 15.46239 | 33943 ft | 395 kts | 217° |
| 2026-05-07 09:46 | 49.82741 | 15.40879 | 33940 ft | 395 kts | 217° |
| 2026-05-07 09:47 | 49.78469 | 15.35565 | 33941 ft | 395 kts | 217° |
| 2026-05-07 09:47 | 49.74201 | 15.30239 | 33942 ft | 395 kts | 217° |
| 2026-05-07 09:48 | 49.69939 | 15.24927 | 33940 ft | 395 kts | 217° |
| 2026-05-07 09:48 | 49.65662 | 15.19623 | 33941 ft | 396 kts | 217° |
| 2026-05-07 09:49 | 49.61379 | 15.14326 | 33941 ft | 396 kts | 217° |
| 2026-05-07 09:49 | 49.57077 | 15.09019 | 33941 ft | 396 kts | 217° |
| 2026-05-07 09:50 | 49.52783 | 15.03739 | 33941 ft | 397 kts | 217° |
| 2026-05-07 09:50 | 49.48478 | 14.98456 | 33941 ft | 397 kts | 217° |
| 2026-05-07 09:51 | 49.44156 | 14.93163 | 33941 ft | 397 kts | 217° |
| 2026-05-07 09:51 | 49.39856 | 14.87911 | 33941 ft | 397 kts | 217° |
| 2026-05-07 09:52 | 49.35525 | 14.82633 | 33942 ft | 397 kts | 217° |
| 2026-05-07 09:52 | 49.31203 | 14.77377 | 33942 ft | 397 kts | 217° |
| 2026-05-07 09:53 | 49.26881 | 14.72133 | 33942 ft | 397 kts | 217° |
| 2026-05-07 09:53 | 49.22575 | 14.66921 | 33945 ft | 397 kts | 217° |
| 2026-05-07 09:54 | 49.18256 | 14.61705 | 33954 ft | 397 kts | 217° |
| 2026-05-07 09:54 | 49.13912 | 14.56470 | 33966 ft | 397 kts | 217° |
| 2026-05-07 09:55 | 49.09603 | 14.51289 | 33979 ft | 396 kts | 217° |
| 2026-05-07 09:55 | 49.05273 | 14.46096 | 33989 ft | 396 kts | 217° |
| 2026-05-07 09:56 | 49.00943 | 14.40912 | 33994 ft | 396 kts | 217° |
| 2026-05-07 09:56 | 48.96647 | 14.35783 | 33996 ft | 395 kts | 217° |
| 2026-05-07 09:57 | 48.92167 | 14.30955 | 33997 ft | 394 kts | 212° |
| 2026-05-07 09:57 | 48.87595 | 14.26348 | 33997 ft | 394 kts | 212° |
| 2026-05-07 09:58 | 48.83030 | 14.21779 | 33997 ft | 393 kts | 213° |
| 2026-05-07 09:58 | 48.78475 | 14.17226 | 33996 ft | 392 kts | 213° |
| 2026-05-07 09:59 | 48.73932 | 14.12693 | 33997 ft | 392 kts | 213° |
| 2026-05-07 09:59 | 48.69377 | 14.08156 | 33996 ft | 391 kts | 213° |
| 2026-05-07 10:00 | 48.64834 | 14.03642 | 33996 ft | 391 kts | 213° |
| 2026-05-07 10:00 | 48.60300 | 13.99147 | 33994 ft | 391 kts | 213° |
| 2026-05-07 10:01 | 48.55770 | 13.94668 | 34000 ft | 393 kts | 213° |
| 2026-05-07 10:01 | 48.51215 | 13.90171 | 34006 ft | 392 kts | 213° |
| 2026-05-07 10:02 | 48.46664 | 13.85687 | 34013 ft | 392 kts | 213° |
| 2026-05-07 10:02 | 48.42118 | 13.81219 | 34019 ft | 391 kts | 213° |
| 2026-05-07 10:03 | 48.37553 | 13.76742 | 34021 ft | 391 kts | 213° |
| 2026-05-07 10:03 | 48.33023 | 13.72309 | 34022 ft | 390 kts | 213° |
| 2026-05-07 10:04 | 48.28474 | 13.67867 | 34023 ft | 390 kts | 213° |
| 2026-05-07 10:04 | 48.23916 | 13.63425 | 34023 ft | 390 kts | 213° |
| 2026-05-07 10:05 | 48.19361 | 13.58997 | 34023 ft | 391 kts | 213° |
| 2026-05-07 10:05 | 48.14822 | 13.54593 | 34023 ft | 391 kts | 213° |
| 2026-05-07 10:06 | 48.10262 | 13.50179 | 34022 ft | 392 kts | 213° |
| 2026-05-07 10:06 | 48.05693 | 13.45765 | 34023 ft | 392 kts | 213° |
| 2026-05-07 10:07 | 48.01104 | 13.41342 | 34023 ft | 393 kts | 213° |
| 2026-05-07 10:07 | 47.96529 | 13.36942 | 34024 ft | 392 kts | 213° |
| 2026-05-07 10:08 | 47.91945 | 13.32533 | 34023 ft | 392 kts | 212° |
| 2026-05-07 10:08 | 47.87388 | 13.28153 | 34022 ft | 392 kts | 212° |
| 2026-05-07 10:09 | 47.82703 | 13.23687 | 34023 ft | 393 kts | 212° |
| 2026-05-07 10:09 | 47.78108 | 13.19311 | 34023 ft | 394 kts | 212° |
| 2026-05-07 10:10 | 47.73501 | 13.14930 | 34022 ft | 395 kts | 212° |
| 2026-05-07 10:10 | 47.68860 | 13.10522 | 34021 ft | 395 kts | 212° |
| 2026-05-07 10:11 | 47.64251 | 13.06155 | 34022 ft | 396 kts | 212° |
| 2026-05-07 10:11 | 47.59594 | 13.01751 | 34022 ft | 397 kts | 212° |
| 2026-05-07 10:12 | 47.54964 | 12.97383 | 34022 ft | 397 kts | 212° |
| 2026-05-07 10:12 | 47.50308 | 12.93000 | 34022 ft | 398 kts | 212° |
| 2026-05-07 10:13 | 47.45624 | 12.88598 | 34023 ft | 398 kts | 212° |
| 2026-05-07 10:13 | 47.40953 | 12.84218 | 34022 ft | 399 kts | 212° |
| 2026-05-07 10:14 | 47.36280 | 12.79846 | 34023 ft | 399 kts | 212° |
| 2026-05-07 10:14 | 47.31603 | 12.75480 | 34023 ft | 399 kts | 212° |
| 2026-05-07 10:15 | 47.26946 | 12.71143 | 34022 ft | 400 kts | 213° |
| 2026-05-07 10:15 | 47.22248 | 12.66775 | 34023 ft | 400 kts | 213° |
| 2026-05-07 10:16 | 47.17549 | 12.62415 | 34023 ft | 400 kts | 213° |
| 2026-05-07 10:16 | 47.12853 | 12.58067 | 34023 ft | 400 kts | 213° |
| 2026-05-07 10:17 | 47.08162 | 12.53735 | 34023 ft | 400 kts | 213° |
| 2026-05-07 10:17 | 47.03467 | 12.49404 | 34024 ft | 400 kts | 213° |
| 2026-05-07 10:18 | 46.98769 | 12.45081 | 34023 ft | 399 kts | 213° |
| 2026-05-07 10:18 | 46.94067 | 12.40764 | 34023 ft | 399 kts | 213° |
| 2026-05-07 10:19 | 46.89364 | 12.36452 | 34025 ft | 399 kts | 213° |
| 2026-05-07 10:19 | 46.84638 | 12.32142 | 34024 ft | 399 kts | 212° |
| 2026-05-07 10:20 | 46.80025 | 12.27655 | 34023 ft | 399 kts | 216° |
| 2026-05-07 10:20 | 46.75689 | 12.22590 | 34028 ft | 399 kts | 219° |
| 2026-05-07 10:20 | 46.73556 | 12.20024 | 34165 ft | 400 kts | 219° |
| 2026-05-07 10:21 | 46.71403 | 12.17438 | 34415 ft | 399 kts | 219° |
| 2026-05-07 10:21 | 46.69286 | 12.14896 | 34646 ft | 399 kts | 219° |
| 2026-05-07 10:21 | 46.67160 | 12.12341 | 34851 ft | 399 kts | 219° |
| 2026-05-07 10:21 | 46.65015 | 12.09764 | 35000 ft | 399 kts | 219° |
| 2026-05-07 10:22 | 46.62880 | 12.07202 | 35013 ft | 399 kts | 219° |
| 2026-05-07 10:22 | 46.58592 | 12.02061 | 35021 ft | 398 kts | 219° |
| 2026-05-07 10:23 | 46.54313 | 11.96941 | 35021 ft | 400 kts | 220° |
| 2026-05-07 10:23 | 46.50018 | 11.91809 | 35021 ft | 401 kts | 220° |
| 2026-05-07 10:24 | 46.45744 | 11.86712 | 35018 ft | 400 kts | 220° |
| 2026-05-07 10:24 | 46.41449 | 11.81604 | 35013 ft | 400 kts | 220° |
| 2026-05-07 10:25 | 46.37157 | 11.76508 | 35008 ft | 400 kts | 220° |
| 2026-05-07 10:25 | 46.32863 | 11.71421 | 35003 ft | 400 kts | 220° |
| 2026-05-07 10:26 | 46.28548 | 11.66320 | 35000 ft | 400 kts | 220° |
| 2026-05-07 10:26 | 46.24251 | 11.61251 | 34999 ft | 400 kts | 220° |
| 2026-05-07 10:27 | 46.19936 | 11.56171 | 34999 ft | 400 kts | 220° |
| 2026-05-07 10:27 | 46.15629 | 11.51112 | 35001 ft | 401 kts | 220° |
| 2026-05-07 10:28 | 46.11318 | 11.46058 | 35007 ft | 401 kts | 220° |
| 2026-05-07 10:28 | 46.06991 | 11.40996 | 35014 ft | 402 kts | 220° |
| 2026-05-07 10:29 | 46.02663 | 11.35944 | 35019 ft | 402 kts | 220° |
| 2026-05-07 10:29 | 46.00755 | 11.33718 | 35022 ft | 403 kts | 219° |
| 2026-05-07 10:30 | 45.94270 | 11.26142 | 35023 ft | 400 kts | 220° |
| 2026-05-07 10:30 | 45.90002 | 11.21178 | 35022 ft | 400 kts | 220° |
| 2026-05-07 10:31 | 45.85638 | 11.16147 | 35023 ft | 401 kts | 220° |
| 2026-05-07 10:31 | 45.81311 | 11.11167 | 35023 ft | 401 kts | 220° |
| 2026-05-07 10:32 | 45.76955 | 11.06153 | 35022 ft | 402 kts | 220° |
| 2026-05-07 10:32 | 45.72622 | 11.01171 | 35023 ft | 402 kts | 220° |
| 2026-05-07 10:33 | 45.68251 | 10.96153 | 35023 ft | 407 kts | 220° |
| 2026-05-07 10:33 | 45.63812 | 10.91067 | 35023 ft | 408 kts | 220° |
| 2026-05-07 10:34 | 45.59414 | 10.86037 | 35023 ft | 408 kts | 220° |
| 2026-05-07 10:34 | 45.54978 | 10.80977 | 35022 ft | 408 kts | 220° |
| 2026-05-07 10:35 | 45.50565 | 10.75948 | 35017 ft | 409 kts | 220° |
| 2026-05-07 10:35 | 45.46124 | 10.70900 | 35012 ft | 410 kts | 220° |
| 2026-05-07 10:36 | 45.41669 | 10.65848 | 35006 ft | 410 kts | 220° |
| 2026-05-07 10:36 | 45.37231 | 10.60824 | 35002 ft | 410 kts | 220° |
| 2026-05-07 10:37 | 45.32753 | 10.55766 | 34999 ft | 410 kts | 220° |
| 2026-05-07 10:37 | 45.28316 | 10.50766 | 34998 ft | 410 kts | 220° |
| 2026-05-07 10:38 | 45.23861 | 10.45754 | 34998 ft | 409 kts | 220° |
| 2026-05-07 10:38 | 45.19407 | 10.40753 | 34998 ft | 409 kts | 220° |
| 2026-05-07 10:39 | 45.14950 | 10.35761 | 34999 ft | 409 kts | 220° |
| 2026-05-07 10:39 | 45.10406 | 10.30663 | 34998 ft | 409 kts | 220° |
| 2026-05-07 10:40 | 45.05949 | 10.25669 | 34998 ft | 408 kts | 220° |
| 2026-05-07 10:40 | 45.01506 | 10.20713 | 34999 ft | 408 kts | 220° |
| 2026-05-07 10:41 | 44.97085 | 10.15796 | 34998 ft | 407 kts | 220° |
| 2026-05-07 10:41 | 44.92630 | 10.10856 | 34998 ft | 407 kts | 220° |
| 2026-05-07 10:42 | 44.88213 | 10.05973 | 34999 ft | 406 kts | 220° |
| 2026-05-07 10:42 | 44.83767 | 10.01097 | 34999 ft | 405 kts | 220° |
| 2026-05-07 10:43 | 44.79319 | 9.96213 | 34997 ft | 408 kts | 221° |
| 2026-05-07 10:43 | 44.74841 | 9.91292 | 34998 ft | 408 kts | 221° |
| 2026-05-07 10:44 | 44.70403 | 9.86422 | 34998 ft | 407 kts | 221° |
| 2026-05-07 10:44 | 44.65962 | 9.81557 | 34999 ft | 406 kts | 221° |
| 2026-05-07 10:45 | 44.61523 | 9.76703 | 34999 ft | 406 kts | 221° |
| 2026-05-07 10:45 | 44.57064 | 9.71837 | 34998 ft | 405 kts | 221° |
| 2026-05-07 10:46 | 44.52645 | 9.67024 | 34998 ft | 405 kts | 221° |
| 2026-05-07 10:46 | 44.48199 | 9.62192 | 34998 ft | 404 kts | 221° |
| 2026-05-07 10:47 | 44.43778 | 9.57395 | 35000 ft | 404 kts | 221° |
| 2026-05-07 10:47 | 44.39338 | 9.52589 | 35007 ft | 404 kts | 221° |
| 2026-05-07 10:48 | 44.34888 | 9.47781 | 35019 ft | 405 kts | 221° |
| 2026-05-07 10:48 | 44.30461 | 9.43006 | 35033 ft | 405 kts | 221° |
| 2026-05-07 10:49 | 44.26025 | 9.38231 | 35044 ft | 404 kts | 221° |
| 2026-05-07 10:49 | 44.21560 | 9.33431 | 35049 ft | 405 kts | 220° |
| 2026-05-07 10:50 | 44.17105 | 9.28630 | 35050 ft | 406 kts | 221° |
| 2026-05-07 10:50 | 44.12664 | 9.23864 | 35051 ft | 406 kts | 220° |
| 2026-05-07 10:51 | 44.08202 | 9.19093 | 35051 ft | 406 kts | 221° |
| 2026-05-07 10:51 | 44.03708 | 9.14303 | 35051 ft | 406 kts | 221° |
| 2026-05-07 10:52 | 43.99231 | 9.09540 | 35053 ft | 407 kts | 221° |
| 2026-05-07 10:52 | 43.94778 | 9.04820 | 35048 ft | 403 kts | 221° |
| 2026-05-07 10:53 | 43.90339 | 9.00111 | 35040 ft | 403 kts | 221° |
| 2026-05-07 10:53 | 43.85879 | 8.95417 | 35030 ft | 403 kts | 221° |
| 2026-05-07 10:54 | 43.81422 | 8.90728 | 35020 ft | 403 kts | 221° |
| 2026-05-07 10:54 | 43.76989 | 8.86058 | 35011 ft | 404 kts | 221° |
| 2026-05-07 10:55 | 43.72499 | 8.81334 | 35011 ft | 405 kts | 221° |
| 2026-05-07 10:55 | 43.67886 | 8.76954 | 35013 ft | 410 kts | 214° |
| 2026-05-07 10:56 | 43.62674 | 8.73694 | 35018 ft | 417 kts | 205° |
| 2026-05-07 10:56 | 43.56970 | 8.71763 | 35022 ft | 425 kts | 196° |
| 2026-05-07 10:57 | 43.51187 | 8.70436 | 35021 ft | 423 kts | 199° |
| 2026-05-07 10:57 | 43.45673 | 8.67929 | 35023 ft | 413 kts | 210° |
| 2026-05-07 10:58 | 43.40822 | 8.64016 | 35024 ft | 405 kts | 221° |
| 2026-05-07 10:58 | 43.36543 | 8.59016 | 35024 ft | 403 kts | 226° |
| 2026-05-07 10:59 | 43.32394 | 8.53912 | 35023 ft | 402 kts | 226° |
| 2026-05-07 10:59 | 43.28238 | 8.48801 | 35023 ft | 402 kts | 226° |
| 2026-05-07 11:00 | 43.24073 | 8.43688 | 35023 ft | 402 kts | 226° |
| 2026-05-07 11:00 | 43.19928 | 8.38608 | 35023 ft | 402 kts | 226° |
| 2026-05-07 11:01 | 43.15758 | 8.33507 | 35025 ft | 401 kts | 225° |
| 2026-05-07 11:01 | 43.11615 | 8.28425 | 35023 ft | 401 kts | 225° |
| 2026-05-07 11:02 | 43.07461 | 8.23348 | 35023 ft | 401 kts | 225° |
| 2026-05-07 11:02 | 43.03314 | 8.18299 | 35023 ft | 401 kts | 225° |
| 2026-05-07 11:03 | 42.99158 | 8.13250 | 35023 ft | 401 kts | 225° |
| 2026-05-07 11:03 | 42.94994 | 8.08205 | 35021 ft | 401 kts | 225° |
| 2026-05-07 11:04 | 42.90816 | 8.03154 | 35018 ft | 401 kts | 225° |
| 2026-05-07 11:04 | 42.86641 | 7.98137 | 35013 ft | 401 kts | 225° |
| 2026-05-07 11:05 | 42.82467 | 7.93139 | 35007 ft | 401 kts | 225° |
| 2026-05-07 11:05 | 42.78285 | 7.88123 | 35003 ft | 401 kts | 225° |
| 2026-05-07 11:06 | 42.74134 | 7.83145 | 34999 ft | 400 kts | 225° |
| 2026-05-07 11:06 | 42.69944 | 7.78129 | 34998 ft | 400 kts | 225° |
| 2026-05-07 11:07 | 42.65788 | 7.73161 | 35000 ft | 400 kts | 225° |
| 2026-05-07 11:07 | 42.61621 | 7.68189 | 35004 ft | 400 kts | 225° |
| 2026-05-07 11:08 | 42.57455 | 7.63225 | 35010 ft | 400 kts | 225° |
| 2026-05-07 11:08 | 42.53278 | 7.58258 | 35017 ft | 400 kts | 225° |
| 2026-05-07 11:09 | 42.49079 | 7.53274 | 35021 ft | 400 kts | 225° |
| 2026-05-07 11:09 | 42.44901 | 7.48324 | 35022 ft | 400 kts | 225° |
| 2026-05-07 11:10 | 42.40710 | 7.43365 | 35024 ft | 405 kts | 225° |
| 2026-05-07 11:10 | 42.36479 | 7.38372 | 35023 ft | 406 kts | 225° |
| 2026-05-07 11:11 | 42.32206 | 7.33335 | 35024 ft | 406 kts | 224° |
| 2026-05-07 11:11 | 42.27989 | 7.28351 | 35023 ft | 406 kts | 224° |
| 2026-05-07 11:12 | 42.23727 | 7.23336 | 35023 ft | 406 kts | 224° |
| 2026-05-07 11:12 | 42.19482 | 7.18357 | 35023 ft | 406 kts | 224° |
| 2026-05-07 11:13 | 42.15205 | 7.13354 | 35022 ft | 406 kts | 224° |
| 2026-05-07 11:13 | 42.10950 | 7.08387 | 35019 ft | 406 kts | 224° |
| 2026-05-07 11:14 | 42.06687 | 7.03420 | 35014 ft | 406 kts | 224° |
| 2026-05-07 11:14 | 42.02424 | 6.98461 | 35008 ft | 406 kts | 224° |
| 2026-05-07 11:15 | 41.98262 | 6.93416 | 35006 ft | 403 kts | 226° |
| 2026-05-07 11:15 | 41.94187 | 6.88396 | 35000 ft | 399 kts | 226° |
| 2026-05-07 11:16 | 41.90090 | 6.83364 | 34999 ft | 399 kts | 226° |
| 2026-05-07 11:16 | 41.85990 | 6.78378 | 34998 ft | 399 kts | 226° |
| 2026-05-07 11:17 | 41.81894 | 6.73403 | 34998 ft | 400 kts | 226° |
| 2026-05-07 11:17 | 41.77785 | 6.68408 | 34998 ft | 400 kts | 226° |
| 2026-05-07 11:18 | 41.73657 | 6.63394 | 34998 ft | 400 kts | 226° |
| 2026-05-07 11:18 | 41.69552 | 6.58414 | 34998 ft | 400 kts | 226° |
| 2026-05-07 11:19 | 41.65433 | 6.53426 | 34998 ft | 400 kts | 226° |
| 2026-05-07 11:19 | 41.61340 | 6.48477 | 34998 ft | 400 kts | 226° |
| 2026-05-07 11:20 | 41.57216 | 6.43499 | 34998 ft | 400 kts | 226° |
| 2026-05-07 11:20 | 41.53088 | 6.38525 | 34998 ft | 400 kts | 226° |
| 2026-05-07 11:21 | 41.48964 | 6.33563 | 35000 ft | 400 kts | 225° |
| 2026-05-07 11:21 | 41.44853 | 6.28602 | 34998 ft | 400 kts | 225° |
| 2026-05-07 11:22 | 41.40716 | 6.23629 | 34998 ft | 400 kts | 225° |
| 2026-05-07 11:22 | 41.36601 | 6.18701 | 34998 ft | 400 kts | 225° |
| 2026-05-07 11:23 | 41.32465 | 6.13760 | 34998 ft | 400 kts | 225° |
| 2026-05-07 11:23 | 41.28319 | 6.08817 | 34999 ft | 399 kts | 225° |
| 2026-05-07 11:24 | 41.24222 | 6.03940 | 34998 ft | 398 kts | 225° |
| 2026-05-07 11:24 | 41.20086 | 5.99025 | 34995 ft | 398 kts | 225° |
| 2026-05-07 11:25 | 41.15944 | 5.94109 | 34998 ft | 402 kts | 225° |
| 2026-05-07 11:25 | 41.11804 | 5.89210 | 34998 ft | 401 kts | 225° |
| 2026-05-07 11:26 | 41.07649 | 5.84302 | 34998 ft | 401 kts | 225° |
| 2026-05-07 11:26 | 41.03484 | 5.79389 | 34999 ft | 401 kts | 225° |
| 2026-05-07 11:27 | 40.99352 | 5.74516 | 34998 ft | 400 kts | 225° |
| 2026-05-07 11:27 | 40.95417 | 5.69334 | 34998 ft | 398 kts | 230° |
| 2026-05-07 11:28 | 40.91896 | 5.63736 | 34998 ft | 397 kts | 234° |
| 2026-05-07 11:28 | 40.88675 | 5.57808 | 34999 ft | 396 kts | 236° |
| 2026-05-07 11:29 | 40.85461 | 5.51892 | 34998 ft | 396 kts | 236° |
| 2026-05-07 11:29 | 40.82268 | 5.45987 | 34998 ft | 395 kts | 236° |
| 2026-05-07 11:30 | 40.79094 | 5.40104 | 34997 ft | 396 kts | 236° |
| 2026-05-07 11:30 | 40.75894 | 5.34176 | 35000 ft | 396 kts | 236° |
| 2026-05-07 11:31 | 40.72723 | 5.28283 | 34997 ft | 397 kts | 236° |
| 2026-05-07 11:31 | 40.69510 | 5.22328 | 34998 ft | 397 kts | 235° |
| 2026-05-07 11:32 | 40.64704 | 5.13464 | 34998 ft | 398 kts | 235° |
| 2026-05-07 11:33 | 40.61491 | 5.07555 | 34998 ft | 399 kts | 235° |
| 2026-05-07 11:33 | 40.58260 | 5.01624 | 34998 ft | 399 kts | 235° |
| 2026-05-07 11:34 | 40.55025 | 4.95694 | 34998 ft | 400 kts | 235° |
| 2026-05-07 11:34 | 40.51782 | 4.89762 | 34998 ft | 401 kts | 235° |
| 2026-05-07 11:35 | 40.48524 | 4.83812 | 34998 ft | 402 kts | 235° |
| 2026-05-07 11:35 | 40.45259 | 4.77862 | 34998 ft | 403 kts | 235° |
| 2026-05-07 11:36 | 40.41994 | 4.71929 | 34998 ft | 404 kts | 235° |
| 2026-05-07 11:36 | 40.38715 | 4.65978 | 34998 ft | 405 kts | 234° |
| 2026-05-07 11:37 | 40.35423 | 4.60033 | 34998 ft | 405 kts | 234° |
| 2026-05-07 11:37 | 40.33771 | 4.57052 | 34728 ft | 401 kts | 234° |
| 2026-05-07 11:37 | 40.32140 | 4.54112 | 34265 ft | 396 kts | 234° |
| 2026-05-07 11:37 | 40.30543 | 4.51230 | 33651 ft | 396 kts | 234° |
| 2026-05-07 11:38 | 40.28925 | 4.48313 | 33027 ft | 395 kts | 234° |
| 2026-05-07 11:38 | 40.27324 | 4.45429 | 32417 ft | 394 kts | 234° |
| 2026-05-07 11:38 | 40.25710 | 4.42525 | 31803 ft | 393 kts | 234° |
| 2026-05-07 11:38 | 40.24118 | 4.39664 | 31181 ft | 392 kts | 234° |
| 2026-05-07 11:39 | 40.22520 | 4.36793 | 30576 ft | 389 kts | 234° |
| 2026-05-07 11:39 | 40.20948 | 4.33969 | 30193 ft | 381 kts | 233° |
| 2026-05-07 11:39 | 40.19399 | 4.31183 | 29798 ft | 375 kts | 233° |
| 2026-05-07 11:39 | 40.17876 | 4.28446 | 29409 ft | 368 kts | 233° |
| 2026-05-07 11:40 | 40.17278 | 4.27372 | 29254 ft | 366 kts | 233° |
| 2026-05-07 11:40 | 40.16778 | 4.26476 | 29126 ft | 364 kts | 233° |
| 2026-05-07 11:40 | 40.15531 | 4.24242 | 28808 ft | 359 kts | 233° |
| 2026-05-07 11:40 | 40.14088 | 4.21659 | 28416 ft | 355 kts | 234° |
| 2026-05-07 11:41 | 40.12621 | 4.19039 | 27993 ft | 351 kts | 234° |
| 2026-05-07 11:41 | 40.11196 | 4.16495 | 27572 ft | 347 kts | 234° |
| 2026-05-07 11:41 | 40.09787 | 4.13983 | 27151 ft | 344 kts | 234° |
| 2026-05-07 11:41 | 40.08365 | 4.11449 | 26719 ft | 341 kts | 234° |
| 2026-05-07 11:42 | 40.06972 | 4.08970 | 26294 ft | 339 kts | 234° |
| 2026-05-07 11:42 | 40.05593 | 4.06517 | 25872 ft | 336 kts | 234° |
| 2026-05-07 11:42 | 40.04218 | 4.04072 | 25448 ft | 334 kts | 234° |
| 2026-05-07 11:42 | 40.02864 | 4.01667 | 25031 ft | 332 kts | 234° |
| 2026-05-07 11:43 | 40.01498 | 3.99243 | 24610 ft | 330 kts | 235° |
| 2026-05-07 11:43 | 40.00153 | 3.96857 | 24198 ft | 327 kts | 235° |
| 2026-05-07 11:43 | 39.98810 | 3.94477 | 23783 ft | 326 kts | 235° |
| 2026-05-07 11:43 | 39.97465 | 3.92094 | 23365 ft | 324 kts | 235° |
| 2026-05-07 11:44 | 39.96149 | 3.89761 | 22953 ft | 323 kts | 235° |
| 2026-05-07 11:44 | 39.94825 | 3.87419 | 22538 ft | 321 kts | 235° |
| 2026-05-07 11:44 | 39.93503 | 3.85079 | 22125 ft | 321 kts | 234° |
| 2026-05-07 11:44 | 39.92178 | 3.82740 | 21709 ft | 320 kts | 234° |
| 2026-05-07 11:45 | 39.90857 | 3.80408 | 21297 ft | 320 kts | 234° |
| 2026-05-07 11:45 | 39.89549 | 3.78104 | 20890 ft | 320 kts | 234° |
| 2026-05-07 11:45 | 39.88224 | 3.75790 | 20480 ft | 320 kts | 234° |
| 2026-05-07 11:45 | 39.86900 | 3.73481 | 20074 ft | 319 kts | 234° |
| 2026-05-07 11:46 | 39.85570 | 3.71155 | 19666 ft | 319 kts | 234° |
| 2026-05-07 11:46 | 39.84248 | 3.68839 | 19261 ft | 319 kts | 234° |
| 2026-05-07 11:46 | 39.82927 | 3.66523 | 18854 ft | 319 kts | 233° |
| 2026-05-07 11:46 | 39.81618 | 3.64226 | 18451 ft | 319 kts | 233° |
| 2026-05-07 11:47 | 39.80298 | 3.61910 | 18043 ft | 319 kts | 233° |
| 2026-05-07 11:47 | 39.78991 | 3.59619 | 17641 ft | 318 kts | 233° |
| 2026-05-07 11:47 | 39.77672 | 3.57308 | 17238 ft | 318 kts | 233° |
| 2026-05-07 11:47 | 39.76364 | 3.55017 | 16837 ft | 317 kts | 233° |
| 2026-05-07 11:48 | 39.75052 | 3.52721 | 16429 ft | 317 kts | 233° |
| 2026-05-07 11:48 | 39.73738 | 3.50425 | 16018 ft | 317 kts | 233° |
| 2026-05-07 11:48 | 39.72435 | 3.48151 | 15610 ft | 316 kts | 233° |
| 2026-05-07 11:48 | 39.71125 | 3.45851 | 15192 ft | 316 kts | 234° |
| 2026-05-07 11:49 | 39.69906 | 3.43493 | 14772 ft | 316 kts | 238° |
| 2026-05-07 11:49 | 39.68804 | 3.41019 | 14360 ft | 316 kts | 242° |
| 2026-05-07 11:49 | 39.67803 | 3.38461 | 13934 ft | 316 kts | 243° |
| 2026-05-07 11:49 | 39.66834 | 3.35929 | 13508 ft | 316 kts | 243° |
| 2026-05-07 11:50 | 39.65860 | 3.33377 | 13079 ft | 316 kts | 242° |
| 2026-05-07 11:50 | 39.64864 | 3.30770 | 12642 ft | 316 kts | 242° |
| 2026-05-07 11:50 | 39.63906 | 3.28270 | 12505 ft | 304 kts | 242° |
| 2026-05-07 11:50 | 39.62985 | 3.25879 | 12415 ft | 291 kts | 242° |
| 2026-05-07 11:51 | 39.62096 | 3.23572 | 12305 ft | 281 kts | 242° |
| 2026-05-07 11:51 | 39.61231 | 3.21337 | 11988 ft | 279 kts | 242° |
| 2026-05-07 11:51 | 39.60364 | 3.19099 | 11674 ft | 276 kts | 242° |
| 2026-05-07 11:51 | 39.59499 | 3.16866 | 11341 ft | 275 kts | 242° |
| 2026-05-07 11:52 | 39.58652 | 3.14680 | 11006 ft | 275 kts | 242° |
| 2026-05-07 11:52 | 39.57795 | 3.12470 | 10664 ft | 274 kts | 242° |
| 2026-05-07 11:52 | 39.56932 | 3.10248 | 10317 ft | 274 kts | 242° |
| 2026-05-07 11:52 | 39.56078 | 3.08048 | 9971 ft | 274 kts | 242° |
| 2026-05-07 11:53 | 39.55230 | 3.05865 | 9630 ft | 274 kts | 242° |
| 2026-05-07 11:53 | 39.54373 | 3.03659 | 9284 ft | 274 kts | 242° |
| 2026-05-07 11:53 | 39.53520 | 3.01467 | 8941 ft | 274 kts | 242° |
| 2026-05-07 11:53 | 39.52662 | 2.99264 | 8600 ft | 274 kts | 242° |
| 2026-05-07 11:54 | 39.51802 | 2.97056 | 8262 ft | 273 kts | 242° |
| 2026-05-07 11:54 | 39.50952 | 2.94872 | 7927 ft | 272 kts | 242° |
| 2026-05-07 11:54 | 39.50102 | 2.92695 | 7593 ft | 272 kts | 242° |
| 2026-05-07 11:54 | 39.49256 | 2.90525 | 7258 ft | 271 kts | 242° |
| 2026-05-07 11:55 | 39.48408 | 2.88353 | 6921 ft | 271 kts | 242° |
| 2026-05-07 11:55 | 39.47564 | 2.86195 | 6591 ft | 270 kts | 242° |
| 2026-05-07 11:55 | 39.46713 | 2.84020 | 6255 ft | 269 kts | 242° |
| 2026-05-07 11:55 | 39.45873 | 2.81874 | 5923 ft | 268 kts | 242° |
| 2026-05-07 11:56 | 39.45028 | 2.79719 | 5590 ft | 268 kts | 242° |
| 2026-05-07 11:56 | 39.44197 | 2.77596 | 5258 ft | 268 kts | 243° |
| 2026-05-07 11:56 | 39.43522 | 2.75324 | 4927 ft | 268 kts | 254° |
| 2026-05-07 11:56 | 39.43160 | 2.72982 | 4643 ft | 266 kts | 261° |
| 2026-05-07 11:57 | 39.42916 | 2.70608 | 4323 ft | 266 kts | 263° |
| 2026-05-07 11:57 | 39.42693 | 2.68245 | 4018 ft | 265 kts | 263° |
| 2026-05-07 11:57 | 39.42463 | 2.65888 | 3721 ft | 264 kts | 263° |
| 2026-05-07 11:57 | 39.42228 | 2.63558 | 3490 ft | 259 kts | 262° |
| 2026-05-07 11:58 | 39.41992 | 2.61300 | 3448 ft | 252 kts | 262° |
| 2026-05-07 11:58 | 39.41756 | 2.59060 | 3402 ft | 252 kts | 263° |
| 2026-05-07 11:58 | 39.41827 | 2.56811 | 3085 ft | 251 kts | 294° |
| 2026-05-07 11:58 | 39.42858 | 2.55138 | 3010 ft | 239 kts | 334° |
| 2026-05-07 11:59 | 39.44423 | 2.54628 | 2648 ft | 232 kts | 11° |
| 2026-05-07 11:59 | 39.45958 | 2.55117 | 2393 ft | 224 kts | 21° |
| 2026-05-07 11:59 | 39.47360 | 2.55889 | 2205 ft | 211 kts | 43° |
| 2026-05-07 11:59 | 39.48268 | 2.57275 | 2241 ft | 202 kts | 60° |
| 2026-05-07 12:00 | 39.48994 | 2.58849 | 2147 ft | 202 kts | 62° |
| 2026-05-07 12:00 | 39.49692 | 2.60426 | 1914 ft | 202 kts | 61° |
| 2026-05-07 12:00 | 39.50413 | 2.61973 | 1636 ft | 197 kts | 60° |
| 2026-05-07 12:00 | 39.51101 | 2.63419 | 1426 ft | 182 kts | 60° |
| 2026-05-07 12:01 | 39.51740 | 2.64780 | 1140 ft | 172 kts | 60° |
| 2026-05-07 12:01 | 39.52330 | 2.66041 | 916 ft | 159 kts | 60° |
| 2026-05-07 12:01 | 39.52884 | 2.67196 | 730 ft | 145 kts | 60° |
| 2026-05-07 12:01 | 39.53406 | 2.68303 | 549 ft | 142 kts | 60° |
| 2026-05-07 12:02 | 39.53928 | 2.69404 | 376 ft | 142 kts | 60° |
| 2026-05-07 12:02 | 39.54440 | 2.70492 | 173 ft | 141 kts | 60° |
| 2026-05-07 12:02 | 39.54949 | 2.71561 | 40 ft | 135 kts | 60° |
| 2026-05-07 12:02 | 39.55383 | 2.72486 | 35 ft | 102 kts | 58° |
| 2026-05-07 12:03 | 39.55679 | 2.73110 | 35 ft | 55 kts | 63° |
| 2026-05-07 12:03 | 39.55716 | 2.73384 | 35 ft | 15 kts | 97° |
| 2026-05-07 12:03 | 39.55654 | 2.73471 | 35 ft | 13 kts | 150° |
| 2026-05-07 12:03 | 39.55571 | 2.73533 | 35 ft | 13 kts | 149° |
| 2026-05-07 12:04 | 39.55489 | 2.73598 | 35 ft | 14 kts | 148° |
| 2026-05-07 12:04 | 39.55405 | 2.73665 | 35 ft | 14 kts | 148° |
| 2026-05-07 12:04 | 39.55313 | 2.73738 | 35 ft | 17 kts | 149° |
| 2026-05-07 12:04 | 39.55203 | 2.73824 | 35 ft | 19 kts | 148° |
| 2026-05-07 12:05 | 39.55082 | 2.73921 | 35 ft | 20 kts | 149° |
| 2026-05-07 12:05 | 39.54960 | 2.74016 | 35 ft | 20 kts | 149° |
| 2026-05-07 12:05 | 39.54851 | 2.74102 | 35 ft | 10 kts | 149° |
| 2026-05-07 12:05 | 39.54785 | 2.74108 | 35 ft | 10 kts | 220° |
| 2026-05-07 12:06 | 39.54741 | 2.74026 | 35 ft | 12 kts | 239° |
| 2026-05-07 12:06 | 39.54682 | 2.73900 | 35 ft | 17 kts | 239° |
| 2026-05-07 12:06 | 39.54619 | 2.73766 | 35 ft | 17 kts | 238° |
| 2026-05-07 12:06 | 39.54586 | 2.73654 | 35 ft | 11 kts | 293° |
| 2026-05-07 12:07 | 39.54657 | 2.73611 | 35 ft | 11 kts | 344° |
| 2026-05-07 12:07 | 39.54711 | 2.73573 | 35 ft | 5 kts | 333° |
| 2026-05-07 12:07 | 39.54736 | 2.73597 | 35 ft | 5 kts | 57° |
| 2026-05-07 12:07 | 39.54750 | 2.73625 | 35 ft | 0 kts | 58° |
| 2026-05-07 12:09 | 39.54750 | 2.73626 | 35 ft | 0 kts | 58° |